Time;durP1;ratioP1;P1;durP2;ratioP2;P2;SDS_P1;SDS_P2;PMS_P1;PMS_P2;Temp;Humidity;BMP_temperature;BMP_pressure;BME280_temperature;BME280_humidity;BME280_pressure;Samples;Min_cycle;Max_cycle;Signal;HPM_P1;HPM_P2
2023/10/25 00:01:52;;;;;;;8.60;4.40;;;;;;;7.86;100.00;99748.03;6129199;28;20028;-76
2023/10/25 00:04:47;;;;;;;8.77;4.37;;;;;;;7.92;100.00;99758.00;6127855;28;20510;-74
2023/10/25 00:07:43;;;;;;;11.23;4.73;;;;;;;7.98;100.00;99738.91;6131343;28;20024;-75
2023/10/25 00:10:38;;;;;;;10.13;5.00;;;;;;;8.03;100.00;99739.28;6135083;28;20028;-76
2023/10/25 00:13:34;;;;;;;10.57;4.90;;;;;;;8.11;100.00;99736.69;6126681;28;20275;-75
2023/10/25 00:16:29;;;;;;;7.00;3.65;;;;;;;8.16;100.00;99734.41;6131829;28;20076;-74
2023/10/25 00:19:24;;;;;;;12.87;4.50;;;;;;;8.23;100.00;99739.91;6121913;28;20511;-75
2023/10/25 00:22:20;;;;;;;7.90;4.37;;;;;;;8.22;100.00;99728.53;6128390;28;20032;-75
2023/10/25 00:25:15;;;;;;;9.37;4.23;;;;;;;8.24;100.00;99731.00;6128377;28;20834;-76
2023/10/25 00:28:11;;;;;;;8.90;4.30;;;;;;;8.40;100.00;99746.16;6139806;28;20046;-72
2023/10/25 00:31:06;;;;;;;9.02;4.60;;;;;;;8.29;100.00;99732.22;6142378;28;20065;-75
2023/10/25 00:34:03;;;;;;;7.37;4.13;;;;;;;8.36;100.00;99735.91;6125531;28;20074;-73
2023/10/25 00:36:58;;;;;;;9.23;4.47;;;;;;;8.36;100.00;99740.34;6139685;28;20047;-75
2023/10/25 00:39:56;;;;;;;6.77;4.17;;;;;;;8.31;100.00;99743.47;6122193;28;20032;-72
2023/10/25 00:42:52;;;;;;;7.05;3.92;;;;;;;8.26;100.00;99734.31;6128801;28;20632;-74
2023/10/25 00:45:53;;;;;;;9.37;5.20;;;;;;;8.25;100.00;99744.06;6131634;28;20033;-73
2023/10/25 00:48:49;;;;;;;10.27;4.47;;;;;;;8.20;100.00;99735.78;6122704;28;20037;-74
2023/10/25 00:51:44;;;;;;;8.93;4.90;;;;;;;8.09;100.00;99733.38;6105177;28;20044;-75
2023/10/25 00:54:41;;;;;;;9.68;4.72;;;;;;;8.14;100.00;99746.13;6112631;28;20032;-75
2023/10/25 00:57:36;;;;;;;13.27;4.93;;;;;;;8.25;100.00;99749.34;6114435;28;20060;-74
2023/10/25 01:00:32;;;;;;;8.27;4.57;;;;;;;8.20;100.00;99734.94;6108231;28;20028;-73
2023/10/25 01:03:28;;;;;;;9.38;4.30;;;;;;;8.25;100.00;99749.34;6128935;28;20055;-74
2023/10/25 01:06:23;;;;;;;12.27;5.50;;;;;;;8.25;100.00;99751.97;6126567;28;20036;-73
2023/10/25 01:09:19;;;;;;;8.52;5.03;;;;;;;8.25;100.00;99748.50;6137193;28;20036;-75
2023/10/25 01:12:14;;;;;;;10.63;5.07;;;;;;;8.25;100.00;99749.34;6133308;28;20028;-74
2023/10/25 01:15:12;;;;;;;11.77;5.03;;;;;;;8.18;100.00;99737.72;6124481;28;20040;-76
2023/10/25 01:18:07;;;;;;;8.65;4.47;;;;;;;8.16;100.00;99734.41;6131010;28;20028;-73
2023/10/25 01:21:02;;;;;;;12.27;4.60;;;;;;;8.24;100.00;99745.03;6122068;28;20055;-72
2023/10/25 01:23:58;;;;;;;13.53;5.63;;;;;;;8.19;100.00;99739.38;6122126;28;20275;-73
2023/10/25 01:26:53;;;;;;;8.83;4.63;;;;;;;8.18;100.00;99742.19;6121136;28;20267;-73
2023/10/25 01:29:48;;;;;;;11.88;4.78;;;;;;;8.17;100.00;99738.72;6123377;28;20036;-74
2023/10/25 01:32:44;;;;;;;8.83;4.33;;;;;;;8.16;100.00;99738.84;6120562;28;20025;-74
2023/10/25 01:35:39;;;;;;;9.17;4.37;;;;;;;8.09;100.00;99736.03;6132702;28;20038;-73
2023/10/25 01:38:34;;;;;;;6.67;3.63;;;;;;;8.13;100.00;99736.53;6125542;28;20028;-74
2023/10/25 01:41:30;;;;;;;7.37;3.70;;;;;;;8.07;100.00;99727.41;6128748;28;20066;-73
2023/10/25 01:44:25;;;;;;;11.20;3.70;;;;;;;8.05;100.00;99742.59;6134226;28;20376;-74
2023/10/25 01:47:20;;;;;;;11.50;3.97;;;;;;;7.93;100.00;99735.06;6124799;28;20048;-73
2023/10/25 01:50:16;;;;;;;8.47;4.17;;;;;;;7.98;100.00;99738.91;6134321;28;20038;-76
2023/10/25 01:53:11;;;;;;;8.80;4.43;;;;;;;7.92;100.00;99746.59;6129823;28;20306;-76
2023/10/25 01:56:06;;;;;;;8.40;3.80;;;;;;;7.85;100.00;99735.00;6134653;28;20581;-74
2023/10/25 01:59:02;;;;;;;9.67;4.50;;;;;;;7.82;100.00;99730.88;6139815;28;20040;-75
2023/10/25 02:01:57;;;;;;;8.60;3.90;;;;;;;7.87;100.00;99733.88;6143373;28;20028;-75
2023/10/25 02:04:52;;;;;;;7.43;3.97;;;;;;;7.86;100.00;99742.75;6128107;28;20087;-74
2023/10/25 02:07:48;;;;;;;8.67;3.87;;;;;;;7.88;100.00;99738.16;6128967;28;20110;-75
2023/10/25 02:10:43;;;;;;;7.97;3.70;;;;;;;7.99;100.00;99748.47;6112686;28;20029;-75
2023/10/25 02:13:39;;;;;;;8.55;3.85;;;;;;;7.92;100.00;99730.75;6134095;28;20695;-74
2023/10/25 02:16:35;;;;;;;10.07;4.63;;;;;;;8.06;100.00;99728.41;6134085;28;20090;-75
2023/10/25 02:19:30;;;;;;;11.43;3.83;;;;;;;7.93;100.00;99717.44;6134665;28;20475;-74
2023/10/25 02:22:26;;;;;;;12.80;5.60;;;;;;;7.92;100.00;99721.03;6129568;28;20278;-73
2023/10/25 02:25:21;;;;;;;11.43;4.60;;;;;;;7.96;100.00;99722.41;6133620;28;20031;-72
2023/10/25 02:28:16;;;;;;;10.37;4.07;;;;;;;7.92;100.00;99718.41;6123473;28;20307;-72
2023/10/25 02:31:12;;;;;;;11.00;5.07;;;;;;;8.00;100.00;99723.75;6141006;28;20475;-73
2023/10/25 02:34:07;;;;;;;11.00;5.32;;;;;;;8.02;100.00;99721.75;6133055;28;20059;-73
2023/10/25 02:37:03;;;;;;;9.53;4.50;;;;;;;8.04;100.00;99733.03;6120573;28;20041;-73
2023/10/25 02:39:58;;;;;;;11.73;4.60;;;;;;;7.93;100.00;99717.44;6132954;28;20025;-72
2023/10/25 02:42:54;;;;;;;9.33;4.60;;;;;;;8.02;100.00;99732.31;6125168;28;20029;-73
2023/10/25 02:45:49;;;;;;;10.18;5.45;;;;;;;8.02;100.00;99737.59;6131253;28;20503;-73
2023/10/25 02:48:45;;;;;;;11.25;4.70;;;;;;;8.13;100.00;99729.44;6130838;28;20047;-75
2023/10/25 02:51:40;;;;;;;10.20;4.55;;;;;;;8.10;100.00;99727.09;6108260;28;20029;-74
2023/10/25 02:54:35;;;;;;;9.70;4.50;;;;;;;8.17;100.00;99730.78;6124637;28;20076;-73
2023/10/25 02:57:31;;;;;;;7.20;3.80;;;;;;;8.18;100.00;99731.63;6129856;28;20024;-74
2023/10/25 03:00:26;;;;;;;8.03;4.23;;;;;;;8.15;100.00;99721.38;6142097;28;20039;-75
2023/10/25 03:03:23;;;;;;;13.03;4.40;;;;;;;8.20;100.00;99725.22;6138894;28;20052;-72
2023/10/25 03:06:18;;;;;;;9.27;3.95;;;;;;;8.23;100.00;99724.91;6125626;28;20060;-73
2023/10/25 03:09:13;;;;;;;8.23;4.67;;;;;;;8.19;100.00;99712.97;6132140;28;20132;-75
2023/10/25 03:12:08;;;;;;;9.43;4.13;;;;;;;8.18;100.00;99706.03;6135312;28;20039;-73
2023/10/25 03:15:04;;;;;;;9.27;4.63;;;;;;;8.17;100.00;99704.41;6128696;28;20040;-72
2023/10/25 03:18:01;;;;;;;8.73;4.32;;;;;;;8.14;100.00;99702.06;6131691;28;20021;-74
2023/10/25 03:21:00;;;;;;;8.90;3.45;;;;;;;8.05;100.00;99695.06;6112026;28;20078;-73
2023/10/25 03:23:55;;;;;;;11.40;4.18;;;;;;;8.16;100.00;99697.44;6137208;28;20032;-74
2023/10/25 03:26:50;;;;;;;10.00;3.87;;;;;;;8.17;100.00;99693.84;6140895;28;20568;-75
2023/10/25 03:29:46;;;;;;;8.40;3.77;;;;;;;8.21;100.00;99710.16;6138972;28;20028;-74
2023/10/25 03:32:41;;;;;;;9.10;3.75;;;;;;;8.14;100.00;99699.41;6141611;28;20290;-72
2023/10/25 03:35:36;;;;;;;8.97;4.00;;;;;;;8.15;100.00;99702.91;6136214;28;20102;-72
2023/10/25 03:38:34;;;;;;;9.00;4.40;;;;;;;8.20;100.00;99701.44;6136613;28;20055;-73
2023/10/25 03:41:29;;;;;;;9.30;4.10;;;;;;;8.18;100.00;99695.47;6143571;28;20036;-76
2023/10/25 03:44:25;;;;;;;8.17;4.03;;;;;;;8.22;100.00;99696.81;6117043;28;20035;-73
2023/10/25 03:47:20;;;;;;;9.63;4.00;;;;;;;8.23;100.00;99687.94;6088662;28;20040;-75
2023/10/25 03:50:16;;;;;;;9.20;4.23;;;;;;;8.29;100.00;99697.88;6135063;28;20035;-72
2023/10/25 03:53:11;;;;;;;10.80;4.40;;;;;;;8.24;100.00;99697.50;6131165;28;20119;-73
2023/10/25 03:56:06;;;;;;;14.57;4.40;;;;;;;8.30;100.00;99704.81;6135685;28;20028;-72
2023/10/25 03:59:02;;;;;;;8.90;4.07;;;;;;;8.29;100.00;99697.88;6136181;28;20028;-71
2023/10/25 04:01:57;;;;;;;10.67;4.77;;;;;;;8.29;100.00;99695.25;6133948;28;20447;-72
2023/10/25 04:04:52;;;;;;;8.50;4.13;;;;;;;8.28;100.00;99690.13;6146520;28;20274;-71
2023/10/25 04:07:50;;;;;;;9.43;4.43;;;;;;;8.23;100.00;99680.00;6141391;28;20028;-72
2023/10/25 04:10:52;;;;;;;10.13;3.90;;;;;;;8.27;100.00;99678.72;6132266;28;20032;-75
2023/10/25 04:13:48;;;;;;;8.35;3.65;;;;;;;8.38;100.00;99693.47;6124826;28;20464;-74
2023/10/25 04:16:43;;;;;;;7.95;3.65;;;;;;;8.30;100.00;99667.03;6137694;28;20039;-72
2023/10/25 04:19:40;;;;;;;12.93;4.17;;;;;;;8.31;100.00;99668.69;6121458;28;20059;-73
2023/10/25 04:22:35;;;;;;;11.43;4.05;;;;;;;8.37;100.00;99674.16;6130643;28;20423;-72
2023/10/25 04:25:31;;;;;;;8.67;4.30;;;;;;;8.33;100.00;99669.34;6141006;28;20059;-76
2023/10/25 04:28:26;;;;;;;12.63;4.50;;;;;;;8.26;100.00;99650.63;6135403;28;20665;-72
2023/10/25 04:31:22;;;;;;;8.30;4.00;;;;;;;8.34;100.00;99674.47;6122731;28;20039;-72
2023/10/25 04:34:17;;;;;;;7.27;3.60;;;;;;;8.32;100.00;99675.59;6107191;28;20067;-73
2023/10/25 04:37:13;;;;;;;7.90;4.20;;;;;;;8.17;100.00;99651.59;6134762;28;20636;-72
2023/10/25 04:40:09;;;;;;;8.70;4.28;;;;;;;8.20;100.00;99667.13;6129697;28;20032;-72
2023/10/25 04:43:04;;;;;;;15.07;4.78;;;;;;;8.18;100.00;99662.97;6132315;28;20042;-72
2023/10/25 04:46:00;;;;;;;11.53;4.93;;;;;;;8.11;100.00;99660.13;6109221;28;20048;-71
2023/10/25 04:48:55;;;;;;;12.52;4.68;;;;;;;8.15;100.00;99663.28;6125280;28;20039;-71
2023/10/25 04:51:50;;;;;;;10.33;5.23;;;;;;;8.12;100.00;99669.72;6126320;28;20032;-71
2023/10/25 04:54:46;;;;;;;11.63;5.03;;;;;;;8.13;100.00;99660.78;6134019;28;20044;-72
2023/10/25 04:57:41;;;;;;;10.83;5.50;;;;;;;8.07;100.00;99645.56;6131490;28;20467;-71
2023/10/25 05:00:36;;;;;;;11.80;5.30;;;;;;;8.16;100.00;99663.13;6135947;28;20035;-72
2023/10/25 05:03:32;;;;;;;15.03;5.70;;;;;;;8.11;100.00;99662.75;6142996;28;20332;-73
2023/10/25 05:06:27;;;;;;;14.07;5.63;;;;;;;8.05;100.00;99651.97;6125951;28;20611;-71
2023/10/25 05:09:23;;;;;;;13.63;5.88;;;;;;;8.04;100.00;99651.19;6134925;28;20379;-73
2023/10/25 05:12:23;;;;;;;18.25;5.25;;;;;;;8.03;100.00;99644.22;6134208;28;20066;-72
2023/10/25 05:15:20;;;;;;;13.25;5.38;;;;;;;8.06;100.00;99654.47;6103420;28;20024;-73
2023/10/25 05:18:15;;;;;;;14.25;5.18;;;;;;;8.09;100.00;99667.38;6126934;28;20426;-73
2023/10/25 05:21:15;;;;;;;16.20;5.97;;;;;;;8.08;100.00;99657.78;6120550;28;20024;-72
2023/10/25 05:24:11;;;;;;;11.38;4.82;;;;;;;8.05;100.00;99662.53;6098647;28;20024;-72
2023/10/25 05:27:07;;;;;;;11.13;5.15;;;;;;;8.00;100.00;99655.09;6140511;28;20074;-71
2023/10/25 05:30:03;;;;;;;13.60;6.10;;;;;;;7.95;100.00;99657.38;6135461;28;20032;-72
2023/10/25 05:33:01;;;;;;;14.43;5.95;;;;;;;7.85;100.00;99651.38;6137237;28;20158;-73
2023/10/25 05:35:57;;;;;;;10.48;4.70;;;;;;;7.85;100.00;99661.94;6140239;28;20036;-74
2023/10/25 05:38:53;;;;;;;11.70;5.88;;;;;;;7.70;100.00;99639.72;6129826;28;20050;-74
2023/10/25 05:41:49;;;;;;;9.77;5.03;;;;;;;7.72;100.00;99650.94;6144629;28;20032;-72
2023/10/25 05:44:46;;;;;;;10.20;4.70;;;;;;;7.67;100.00;99651.41;6110576;28;20035;-74
2023/10/25 05:47:42;;;;;;;13.57;5.45;;;;;;;7.59;100.00;99647.88;6137103;28;20035;-71
2023/10/25 05:50:37;;;;;;;11.95;5.93;;;;;;;7.66;100.00;99651.56;6138881;28;20036;-72
2023/10/25 05:53:33;;;;;;;12.35;5.38;;;;;;;7.62;100.00;99660.75;6126610;28;20075;-72
2023/10/25 05:56:29;;;;;;;11.00;5.35;;;;;;;7.56;100.00;99650.81;6135474;28;20032;-73
2023/10/25 05:59:24;;;;;;;16.00;5.80;;;;;;;7.56;100.00;99651.66;6135738;28;20032;-73
2023/10/25 06:02:24;;;;;;;14.27;5.50;;;;;;;7.55;100.00;99649.19;6137352;28;20040;-72
2023/10/25 06:05:20;;;;;;;15.02;6.15;;;;;;;7.43;100.00;99648.59;6116977;28;20085;-73
2023/10/25 06:08:15;;;;;;;10.88;5.68;;;;;;;7.41;100.00;99647.91;6109996;28;20036;-72
2023/10/25 06:11:11;;;;;;;12.23;5.13;;;;;;;7.26;100.00;99648.56;6140317;28;20052;-73
2023/10/25 06:14:07;;;;;;;12.63;5.20;;;;;;;7.27;100.00;99650.25;6138255;28;20031;-74
2023/10/25 06:17:03;;;;;;;14.00;5.32;;;;;;;7.36;100.00;99657.25;6142712;28;20433;-74
2023/10/25 06:19:58;;;;;;;13.43;5.57;;;;;;;7.35;100.00;99650.31;6133494;28;20040;-72
2023/10/25 06:22:56;;;;;;;15.47;5.87;;;;;;;7.29;100.00;99645.63;6140504;28;20031;-73
2023/10/25 06:25:51;;;;;;;16.35;7.28;;;;;;;7.33;100.00;99655.75;6137213;28;20024;-71
2023/10/25 06:28:47;;;;;;;18.30;7.90;;;;;;;7.32;100.00;99658.53;6137395;28;20543;-71
2023/10/25 06:31:44;;;;;;;18.80;9.20;;;;;;;7.33;100.00;99661.03;6142118;28;20098;-73
2023/10/25 06:34:40;;;;;;;21.60;10.50;;;;;;;7.13;100.00;99625.25;6130454;28;20120;-72
2023/10/25 06:37:35;;;;;;;22.23;8.33;;;;;;;7.32;100.00;99656.72;6135394;28;20036;-73
2023/10/25 06:40:31;;;;;;;14.77;6.95;;;;;;;7.25;100.00;99652.22;6146006;28;20391;-74
2023/10/25 06:43:30;;;;;;;13.57;5.55;;;;;;;7.30;100.00;99665.75;6133413;28;20024;-74
2023/10/25 06:46:25;;;;;;;11.27;5.65;;;;;;;7.13;100.00;99648.97;6142996;28;20035;-73
2023/10/25 06:49:21;;;;;;;10.82;5.47;;;;;;;7.31;100.00;99667.44;6143554;28;20037;-75
2023/10/25 06:52:16;;;;;;;13.20;6.15;;;;;;;7.38;100.00;99668.47;6130202;28;20024;-74
2023/10/25 06:55:13;;;;;;;13.90;6.60;;;;;;;7.45;100.00;99664.25;6136651;28;20044;-73
2023/10/25 06:58:10;;;;;;;14.90;6.53;;;;;;;7.55;100.00;99670.28;6144664;28;20463;-74
2023/10/25 07:01:06;;;;;;;19.75;7.22;;;;;;;7.62;100.00;99650.22;6136113;28;20149;-71
2023/10/25 07:04:02;;;;;;;19.00;7.20;;;;;;;7.71;100.00;99659.84;6110191;28;20074;-73
2023/10/25 07:06:58;;;;;;;15.32;6.75;;;;;;;7.72;100.00;99648.28;6129236;28;20082;-74
2023/10/25 07:09:53;;;;;;;17.20;8.15;;;;;;;7.89;100.00;99657.16;6111771;28;20036;-72
2023/10/25 07:12:49;;;;;;;15.68;8.15;;;;;;;8.00;100.00;99654.25;6143292;28;20290;-73
2023/10/25 07:15:44;;;;;;;16.27;7.63;;;;;;;8.11;100.00;99641.63;6126118;28;20111;-71
2023/10/25 07:18:39;;;;;;;17.00;7.10;;;;;;;8.28;100.00;99622.28;6135990;28;20075;-72
2023/10/25 07:21:35;;;;;;;15.13;7.17;;;;;;;8.36;100.00;99632.06;6138893;28;20487;-70
2023/10/25 07:24:30;;;;;;;16.53;6.90;;;;;;;8.43;100.00;99624.31;6143546;28;20028;-73
2023/10/25 07:27:25;;;;;;;14.27;6.13;;;;;;;8.65;100.00;99634.31;6124466;28;20024;-71
2023/10/25 07:30:20;;;;;;;11.60;5.60;;;;;;;8.78;100.00;99645.25;6137125;28;20028;-72
2023/10/25 07:33:17;;;;;;;14.07;6.47;;;;;;;8.83;100.00;99648.25;6131807;28;20086;-73
2023/10/25 07:36:12;;;;;;;14.65;6.35;;;;;;;8.74;100.00;99631.53;6136337;28;20278;-72
2023/10/25 07:39:08;;;;;;;12.87;5.00;;;;;;;8.79;100.00;99647.75;6128214;28;20060;-71
2023/10/25 07:42:03;;;;;;;11.60;5.50;;;;;;;8.89;100.00;99659.00;6132395;28;20387;-73
2023/10/25 07:44:58;;;;;;;12.45;6.07;;;;;;;8.92;100.00;99649.91;6139825;28;20423;-73
2023/10/25 07:47:54;;;;;;;16.30;6.97;;;;;;;9.16;100.00;99655.25;6132281;28;20056;-70
2023/10/25 07:50:49;;;;;;;13.00;5.70;;;;;;;9.43;100.00;99662.88;6136130;28;20036;-70
2023/10/25 07:53:44;;;;;;;11.37;5.20;;;;;;;9.64;100.00;99646.53;6125343;28;20032;-73
2023/10/25 07:56:39;;;;;;;11.77;5.73;;;;;;;9.73;100.00;99647.34;6146273;28;20036;-71
2023/10/25 07:59:36;;;;;;;11.20;4.90;;;;;;;9.96;100.00;99658.91;6136697;28;20028;-72
2023/10/25 08:02:31;;;;;;;9.68;5.03;;;;;;;10.10;100.00;99648.44;6137609;28;20577;-72
2023/10/25 08:05:26;;;;;;;9.43;4.30;;;;;;;10.13;100.00;99653.44;6129215;28;20032;-71
2023/10/25 08:08:22;;;;;;;8.33;4.20;;;;;;;10.22;100.00;99634.88;6139133;28;20058;-74
2023/10/25 08:11:17;;;;;;;7.30;4.13;;;;;;;10.24;100.00;99624.94;6142635;28;20023;-71
2023/10/25 08:14:12;;;;;;;8.17;3.83;;;;;;;10.40;100.00;99638.97;6128365;28;20029;-72
2023/10/25 08:17:08;;;;;;;6.97;3.67;;;;;;;10.49;100.00;99606.09;6133472;28;20274;-74
2023/10/25 08:20:04;;;;;;;6.60;3.30;;;;;;;10.73;100.00;99621.88;6127177;28;20445;-72
2023/10/25 08:23:00;;;;;;;9.60;4.03;;;;;;;10.77;100.00;99633.81;6139474;28;20435;-74
2023/10/25 08:26:00;;;;;;;9.60;4.20;;;;;;;10.86;100.00;99633.75;6126256;28;20028;-72
2023/10/25 08:28:55;;;;;;;13.35;3.40;;;;;;;10.92;100.00;99609.19;6134242;28;20496;-72
2023/10/25 08:31:50;;;;;;;6.37;2.80;;;;;;;11.16;100.00;99622.31;6138248;28;20042;-72
2023/10/25 08:34:46;;;;;;;8.63;2.80;;;;;;;11.29;100.00;99631.31;6135496;28;20043;-71
2023/10/25 08:37:42;;;;;;;7.00;2.97;;;;;;;11.54;100.00;99616.03;6136581;28;20032;-72
2023/10/25 08:40:40;;;;;;;10.87;2.90;;;;;;;11.78;100.00;99607.03;6130231;28;20040;-74
2023/10/25 08:43:38;;;;;;;7.43;2.85;;;;;;;11.79;100.00;99603.41;6126667;28;20062;-73
2023/10/25 08:46:33;;;;;;;4.68;2.47;;;;;;;11.74;100.00;99601.25;6130523;28;20055;-71
2023/10/25 08:49:29;;;;;;;5.72;2.60;;;;;;;12.03;100.00;99611.13;6135366;28;20169;-71
2023/10/25 08:52:25;;;;;;;5.80;2.63;;;;;;;12.07;100.00;99596.44;6139754;28;20051;-71
2023/10/25 08:55:20;;;;;;;5.10;2.45;;;;;;;12.13;100.00;99597.53;6139459;28;20478;-73
2023/10/25 08:58:17;;;;;;;5.87;2.77;;;;;;;11.80;100.00;99605.84;6140856;28;20063;-73
2023/10/25 09:01:12;;;;;;;5.60;2.90;;;;;;;11.89;100.00;99596.81;6130678;28;20396;-74
2023/10/25 09:04:08;;;;;;;11.03;3.27;;;;;;;11.88;100.00;99611.09;6138927;28;20037;-74
2023/10/25 09:07:27;;;;;;;5.50;2.60;;;;;;;12.08;100.00;99607.91;6134314;28;20123;-72
2023/10/25 09:10:24;;;;;;;5.95;2.53;;;;;;;12.34;100.00;99597.63;6125691;28;20024;-72
2023/10/25 09:13:19;;;;;;;5.88;2.67;;;;;;;12.11;100.00;99594.25;6131405;28;20031;-74
2023/10/25 09:16:16;;;;;;;4.73;2.57;;;;;;;12.43;100.00;99577.91;6125378;28;20078;-72
2023/10/25 09:19:18;;;;;;;8.63;2.97;;;;;;;12.95;100.00;99580.34;6112094;28;20472;-71
2023/10/25 09:22:22;;;;;;;5.28;2.22;;;;;;;13.20;100.00;99579.00;6121811;28;20444;-74
2023/10/25 09:25:28;;;;;;;4.32;2.30;;;;;;;13.41;100.00;99576.31;6131659;28;20031;-72
2023/10/25 09:28:29;;;;;;;7.65;2.78;;;;;;;12.94;100.00;99584.84;6102789;28;20035;-71
2023/10/25 09:31:29;;;;;;;4.05;2.25;;;;;;;12.95;100.00;99575.84;6134249;28;20032;-72
2023/10/25 09:34:24;;;;;;;4.20;1.98;;;;;;;13.21;100.00;99563.84;6114526;28;20107;-72
2023/10/25 09:37:20;;;;;;;5.57;2.08;;;;;;;13.30;100.00;99573.34;6139064;28;20115;-73
2023/10/25 09:40:15;;;;;;;5.70;2.40;;;;;;;12.75;100.00;99564.16;6140686;28;20036;-74
2023/10/25 09:43:14;;;;;;;6.67;2.80;;;;;;;12.54;100.00;99562.31;6142065;28;20020;-73
2023/10/25 09:46:11;;;;;;;5.22;2.78;;;;;;;13.12;100.00;99568.47;6136798;28;20036;-71
2023/10/25 09:49:06;;;;;;;8.25;2.33;;;;;;;13.05;100.00;99568.38;6110070;28;20672;-73
2023/10/25 09:52:05;;;;;;;4.72;2.25;;;;;;;13.29;100.00;99564.53;6136455;28;20062;-73
2023/10/25 09:55:14;;;;;;;5.10;2.75;;;;;;;13.14;100.00;99550.47;6138892;28;20028;-73
2023/10/25 09:58:11;;;;;;;3.30;2.03;;;;;;;12.83;100.00;99558.72;6113280;28;20044;-72
2023/10/25 10:01:08;;;;;;;3.50;1.90;;;;;;;12.67;100.00;99558.97;6134403;28;20089;-72
2023/10/25 10:04:13;;;;;;;4.00;2.15;;;;;;;12.49;100.00;99563.88;6131798;28;20050;-71
2023/10/25 10:07:17;;;;;;;5.43;2.35;;;;;;;12.34;100.00;99544.44;6112856;28;20039;-74
2023/10/25 10:10:26;;;;;;;4.75;2.65;;;;;;;12.02;100.00;99540.38;6110653;28;20035;-73
2023/10/25 10:13:22;;;;;;;4.95;2.97;;;;;;;11.96;100.00;99549.06;6120630;28;20048;-71
2023/10/25 10:16:19;;;;;;;5.22;2.67;;;;;;;11.94;100.00;99554.56;6115150;28;20383;-74
2023/10/25 10:19:14;;;;;;;4.13;2.05;;;;;;;12.20;100.00;99558.59;6133778;28;20487;-73
2023/10/25 10:22:13;;;;;;;6.27;2.33;;;;;;;12.24;100.00;99536.78;6135903;28;20028;-75
2023/10/25 10:25:09;;;;;;;6.75;2.30;;;;;;;12.54;100.00;99545.53;6127366;28;20016;-73
2023/10/25 10:28:04;;;;;;;4.50;2.40;;;;;;;12.69;100.00;99538.31;6128170;28;20041;-71
2023/10/25 10:31:00;;;;;;;4.47;2.17;;;;;;;12.52;100.00;99524.44;6111612;28;20028;-71
2023/10/25 10:33:55;;;;;;;6.35;2.40;;;;;;;12.60;100.00;99528.81;6110262;28;20539;-73
2023/10/25 10:37:08;;;;;;;4.75;2.35;;;;;;;12.45;100.00;99522.69;6135981;28;20032;-74
2023/10/25 10:40:03;;;;;;;4.75;2.13;;;;;;;12.40;100.00;99522.44;6136936;28;20055;-72
2023/10/25 10:42:59;;;;;;;5.07;2.23;;;;;;;12.84;100.00;99516.97;6131762;28;20126;-73
2023/10/25 10:45:54;;;;;;;4.28;1.80;;;;;;;12.75;100.00;99513.63;6129063;28;20028;-72
2023/10/25 10:48:50;;;;;;;5.53;2.10;;;;;;;12.97;100.00;99509.94;6145306;28;20028;-72
2023/10/25 10:51:46;;;;;;;3.45;2.05;;;;;;;13.13;100.00;99497.44;6114789;28;20328;-71
2023/10/25 10:54:41;;;;;;;4.70;2.13;;;;;;;13.26;100.00;99519.66;6104567;28;20037;-73
2023/10/25 10:57:37;;;;;;;4.30;2.07;;;;;;;13.15;100.00;99506.06;6136817;28;20032;-73
2023/10/25 11:00:32;;;;;;;6.32;2.33;;;;;;;13.16;100.00;99489.03;6136144;28;20033;-73
2023/10/25 11:03:28;;;;;;;4.70;2.03;;;;;;;13.15;100.00;99501.56;6136666;28;20059;-73
2023/10/25 11:06:24;;;;;;;4.55;1.92;;;;;;;12.94;100.00;99502.34;6141399;28;20107;-75
2023/10/25 11:09:19;;;;;;;6.28;2.25;;;;;;;12.90;100.00;99484.31;6133410;28;20027;-72
2023/10/25 11:12:15;;;;;;;6.17;2.30;;;;;;;12.98;100.00;99479.69;6130223;28;20131;-72
2023/10/25 11:15:11;;;;;;;6.13;2.43;;;;;;;12.76;100.00;99469.22;6131375;28;20266;-72
2023/10/25 11:18:09;;;;;;;5.13;2.30;;;;;;;13.02;100.00;99464.13;6135901;28;20372;-72
2023/10/25 11:21:04;;;;;;;6.70;2.60;;;;;;;13.10;100.00;99462.19;6128784;28;20036;-72
2023/10/25 11:24:04;;;;;;;8.47;2.67;;;;;;;12.89;100.00;99459.53;6136508;28;20032;-72
2023/10/25 11:27:00;;;;;;;5.47;2.40;;;;;;;12.67;100.00;99441.94;6136036;28;20464;-74
2023/10/25 11:29:56;;;;;;;5.25;2.42;;;;;;;12.81;100.00;99449.03;6110744;28;20450;-73
2023/10/25 11:32:52;;;;;;;10.02;3.33;;;;;;;12.78;100.00;99445.91;6132234;28;20135;-73
2023/10/25 11:35:49;;;;;;;9.38;3.10;;;;;;;12.90;100.00;99423.09;6142098;28;20400;-73
2023/10/25 11:38:47;;;;;;;7.68;3.35;;;;;;;12.95;100.00;99420.69;6132215;28;20108;-73
2023/10/25 11:41:44;;;;;;;6.47;2.70;;;;;;;13.06;100.00;99418.31;6134667;28;20074;-73
2023/10/25 11:44:39;;;;;;;8.30;2.88;;;;;;;13.22;100.00;99411.91;6137223;28;20388;-73
2023/10/25 11:47:37;;;;;;;6.63;3.60;;;;;;;13.45;100.00;99401.78;6120861;28;20046;-73
2023/10/25 11:50:32;;;;;;;7.57;2.55;;;;;;;13.42;100.00;99409.38;6125803;28;20042;-75
2023/10/25 11:53:27;;;;;;;4.72;2.55;;;;;;;13.45;100.00;99390.34;6131678;28;20447;-75
2023/10/25 11:56:24;;;;;;;4.27;1.97;;;;;;;13.53;100.00;99398.16;6135962;28;20024;-74
2023/10/25 11:59:19;;;;;;;5.38;2.10;;;;;;;13.89;100.00;99382.72;6096648;28;20055;-73
2023/10/25 12:02:14;;;;;;;5.70;1.80;;;;;;;13.54;100.00;99367.84;6133344;28;20119;-74
2023/10/25 12:05:10;;;;;;;5.70;2.40;;;;;;;13.91;100.00;99369.22;6134308;28;20025;-74
2023/10/25 12:08:05;;;;;;;4.30;1.80;;;;;;;13.78;100.00;99358.53;6144352;28;20303;-75
2023/10/25 12:11:00;;;;;;;5.97;2.00;;;;;;;13.97;100.00;99349.78;6135556;28;20043;-73
2023/10/25 12:13:56;;;;;;;4.55;1.50;;;;;;;13.89;100.00;99336.63;6135526;28;20033;-75
2023/10/25 12:16:52;;;;;;;4.73;1.30;;;;;;;13.99;100.00;99324.56;6131399;28;20094;-74
2023/10/25 12:19:50;;;;;;;4.27;1.40;;;;;;;13.96;98.97;99313.47;6132933;28;21126;-74
2023/10/25 12:22:45;;;;;;;4.63;1.20;;;;;;;14.07;100.00;99319.03;6137116;28;20283;-73
2023/10/25 12:25:40;;;;;;;5.77;2.00;;;;;;;13.99;97.90;99318.41;6131396;28;20044;-72
2023/10/25 12:28:36;;;;;;;4.73;1.80;;;;;;;13.94;95.92;99310.97;6133268;28;20064;-73
2023/10/25 12:31:32;;;;;;;4.75;1.70;;;;;;;13.78;97.96;99297.25;6126422;28;20475;-73
2023/10/25 12:34:28;;;;;;;5.10;2.00;;;;;;;13.84;100.00;99304.41;6135304;28;20032;-74
2023/10/25 12:37:25;;;;;;;8.38;1.83;;;;;;;13.83;98.96;99300.94;6145058;28;20035;-72
2023/10/25 12:40:21;;;;;;;4.22;1.90;;;;;;;13.76;98.32;99292.09;6134775;28;20035;-72
2023/10/25 12:43:16;;;;;;;3.57;1.73;;;;;;;13.82;98.50;99298.47;6140486;28;20036;-75
2023/10/25 12:46:11;;;;;;;4.43;1.92;;;;;;;13.83;97.56;99300.13;6127052;28;20107;-74
2023/10/25 12:49:07;;;;;;;5.53;1.47;;;;;;;13.75;96.02;99298.47;6125897;28;20024;-74
2023/10/25 12:52:05;;;;;;;4.63;1.38;;;;;;;13.80;95.47;99297.84;6123254;28;20278;-74
2023/10/25 12:55:00;;;;;;;3.58;1.20;;;;;;;13.77;95.11;99285.75;6133728;28;20049;-73
2023/10/25 12:57:55;;;;;;;2.40;1.10;;;;;;;13.87;95.75;99283.50;6127007;28;20403;-74
2023/10/25 13:00:51;;;;;;;5.15;1.02;;;;;;;14.09;91.26;99290.31;6132214;28;20450;-73
2023/10/25 13:03:47;;;;;;;5.85;1.00;;;;;;;13.96;91.85;99290.31;6137576;28;20044;-75
2023/10/25 13:06:42;;;;;;;6.60;0.80;;;;;;;13.98;91.92;99274.94;6131424;28;20034;-73
2023/10/25 13:09:38;;;;;;;3.00;1.02;;;;;;;14.17;93.38;99279.47;6136635;28;20040;-74
2023/10/25 13:12:35;;;;;;;6.97;1.35;;;;;;;14.11;92.50;99277.59;6141479;28;20039;-73
2023/10/25 13:15:30;;;;;;;2.92;0.98;;;;;;;14.06;93.22;99255.25;6140677;28;20057;-73
2023/10/25 13:18:26;;;;;;;3.53;1.07;;;;;;;14.02;92.34;99270.81;6138604;28;20028;-74
2023/10/25 13:21:21;;;;;;;1.83;1.10;;;;;;;13.99;93.68;99255.25;6121696;28;20085;-72
2023/10/25 13:24:16;;;;;;;2.63;1.13;;;;;;;14.07;94.39;99263.06;6133470;28;20263;-74
2023/10/25 13:27:12;;;;;;;3.73;1.13;;;;;;;14.01;94.75;99247.88;6138735;28;20023;-74
2023/10/25 13:30:07;;;;;;;1.47;0.80;;;;;;;13.90;95.40;99240.47;6131520;28;20028;-75
2023/10/25 13:33:03;;;;;;;3.22;1.00;;;;;;;13.92;96.42;99243.75;6131879;28;20444;-74
2023/10/25 13:35:58;;;;;;;4.07;1.50;;;;;;;13.92;96.47;99242.91;6131221;28;20031;-74
2023/10/25 13:38:53;;;;;;;9.03;1.90;;;;;;;13.96;96.98;99226.34;6133121;28;20032;-74
2023/10/25 13:41:49;;;;;;;3.23;1.10;;;;;;;13.97;97.98;99229.84;6134988;28;20072;-74